Time;durP1;ratioP1;P1;durP2;ratioP2;P2;SDS_P1;SDS_P2;PMS_P1;PMS_P2;Temp;Humidity;BMP_temperature;BMP_pressure;BME280_temperature;BME280_humidity;BME280_pressure;Samples;Min_cycle;Max_cycle;Signal;HPM_P1;HPM_P2
2022/04/28 00:00:54;;;;;;;3.17;0.85;;;5.50;99.90;;;;;;5048424;28;20054;-75
2022/04/28 00:03:20;;;;;;;5.82;1.00;;;5.50;99.90;;;;;;5048592;28;20503;-75
2022/04/28 00:05:46;;;;;;;3.05;1.00;;;5.40;99.90;;;;;;5038325;28;20041;-75
2022/04/28 00:08:13;;;;;;;3.47;1.00;;;5.40;99.90;;;;;;5033941;28;20524;-75
2022/04/28 00:10:39;;;;;;;3.88;1.27;;;5.40;99.90;;;;;;5034414;28;20049;-75
2022/04/28 00:13:07;;;;;;;2.72;1.02;;;5.40;99.90;;;;;;5033548;28;20029;-75
2022/04/28 00:15:33;;;;;;;2.05;0.90;;;5.40;99.90;;;;;;5037925;28;20028;-75
2022/04/28 00:17:59;;;;;;;4.07;1.60;;;5.30;99.90;;;;;;5032731;28;20022;-75
2022/04/28 00:20:25;;;;;;;3.00;0.93;;;5.40;99.90;;;;;;5033176;28;20067;-75
2022/04/28 00:22:51;;;;;;;6.20;1.58;;;5.30;99.90;;;;;;5033278;28;20061;-75
2022/04/28 00:25:17;;;;;;;3.80;1.27;;;5.30;99.90;;;;;;5033390;28;20033;-75
2022/04/28 00:27:42;;;;;;;3.17;1.08;;;5.30;99.90;;;;;;5033118;28;20052;-75
2022/04/28 00:30:09;;;;;;;3.75;1.13;;;5.30;99.90;;;;;;5030310;28;20032;-75
2022/04/28 00:32:35;;;;;;;3.47;1.40;;;5.30;99.90;;;;;;5032507;28;20029;-75
2022/04/28 00:35:01;;;;;;;5.50;1.35;;;5.20;99.90;;;;;;5032473;28;20039;-75
2022/04/28 00:37:27;;;;;;;3.20;1.00;;;5.20;99.90;;;;;;5044184;28;20029;-74
2022/04/28 00:39:53;;;;;;;4.75;1.33;;;5.20;99.90;;;;;;5031311;28;20032;-75
2022/04/28 00:42:20;;;;;;;2.85;1.10;;;5.10;99.90;;;;;;5031135;28;20040;-76
2022/04/28 00:44:46;;;;;;;3.20;1.05;;;5.10;99.90;;;;;;5026347;28;20060;-75
2022/04/28 00:47:13;;;;;;;3.50;1.05;;;5.10;99.90;;;;;;5032576;28;20044;-75
2022/04/28 00:52:24;;;;;;;4.72;0.73;;;5.00;99.90;;;;;;5048213;28;20025;-75
2022/04/28 00:54:54;;;;;;;3.90;0.82;;;5.00;99.90;;;;;;5030209;28;20037;-74
2022/04/28 00:57:21;;;;;;;2.47;0.80;;;5.00;99.90;;;;;;5030434;28;20052;-75
2022/04/28 00:59:48;;;;;;;4.85;0.80;;;5.00;99.90;;;;;;5031128;28;20040;-75
2022/04/28 01:02:17;;;;;;;3.45;1.25;;;4.90;99.90;;;;;;5029712;28;20485;-75
2022/04/28 01:04:43;;;;;;;2.88;1.02;;;4.90;99.90;;;;;;5034074;28;20396;-76
2022/04/28 01:07:09;;;;;;;5.95;1.40;;;5.00;99.90;;;;;;5033126;28;20607;-75
2022/04/28 01:09:36;;;;;;;4.00;1.50;;;4.90;99.90;;;;;;5037588;28;20473;-75
2022/04/28 01:12:06;;;;;;;3.20;1.27;;;4.90;99.90;;;;;;5030032;28;20030;-75
2022/04/28 01:14:33;;;;;;;4.18;1.75;;;4.90;99.90;;;;;;5030562;28;20516;-75
2022/04/28 01:17:02;;;;;;;4.78;1.40;;;4.80;99.90;;;;;;5047229;28;20028;-75
2022/04/28 01:19:29;;;;;;;5.57;2.13;;;4.80;99.90;;;;;;5029400;28;20040;-75
2022/04/28 01:21:56;;;;;;;4.40;1.90;;;4.80;99.90;;;;;;5031429;28;20018;-75
2022/04/28 01:24:21;;;;;;;3.85;1.50;;;4.80;99.90;;;;;;5029804;28;20543;-75
2022/04/28 01:26:50;;;;;;;3.33;1.00;;;4.80;99.90;;;;;;5030204;28;20037;-75
2022/04/28 01:29:18;;;;;;;5.05;1.88;;;4.80;99.90;;;;;;5046989;28;20065;-75
2022/04/28 01:31:43;;;;;;;5.50;1.27;;;4.90;99.90;;;;;;5013245;28;20064;-75
2022/04/28 01:34:10;;;;;;;4.15;1.75;;;4.90;99.90;;;;;;5030997;28;20517;-75
2022/04/28 01:36:37;;;;;;;2.97;1.08;;;4.90;99.90;;;;;;5030920;28;20120;-75
2022/04/28 01:39:06;;;;;;;3.97;1.70;;;4.80;99.90;;;;;;5046096;28;20386;-76
2022/04/28 01:41:33;;;;;;;4.73;1.30;;;4.80;99.90;;;;;;5032071;28;20486;-75
2022/04/28 01:44:00;;;;;;;5.45;1.27;;;4.80;99.90;;;;;;5024422;28;20029;-75
2022/04/28 01:46:26;;;;;;;5.15;1.92;;;4.80;99.90;;;;;;5048141;28;20060;-75
2022/04/28 01:49:06;;;;;;;3.83;1.90;;;4.70;99.90;;;;;;5025366;28;20091;-75
2022/04/28 01:54:59;;;;;;;5.53;2.60;;;4.70;99.90;;;;;;5047311;28;20705;-76
2022/04/28 01:57:31;;;;;;;7.70;2.75;;;4.80;99.90;;;;;;5028806;28;20547;-75
2022/04/28 02:00:16;;;;;;;8.00;2.90;;;4.70;99.90;;;;;;5031318;28;20044;-75
2022/04/28 02:02:51;;;;;;;6.07;2.17;;;4.70;99.90;;;;;;5046165;28;20082;-75
2022/04/28 02:05:16;;;;;;;7.88;2.22;;;4.70;99.90;;;;;;5030140;28;20029;-76
2022/04/28 02:07:43;;;;;;;5.18;1.90;;;4.60;99.90;;;;;;5029325;28;20068;-75
2022/04/28 02:10:09;;;;;;;4.90;1.98;;;4.60;99.90;;;;;;5034621;28;20032;-75
2022/04/28 02:12:37;;;;;;;5.57;1.60;;;4.50;99.90;;;;;;5034768;28;20037;-75
2022/04/28 02:15:17;;;;;;;4.38;1.38;;;4.50;99.90;;;;;;5033575;28;20067;-75
2022/04/28 02:18:02;;;;;;;3.40;1.67;;;4.50;99.90;;;;;;5030749;28;20091;-75
2022/04/28 02:20:29;;;;;;;3.65;1.35;;;4.40;99.90;;;;;;5030523;28;20064;-75
2022/04/28 02:22:54;;;;;;;3.33;1.40;;;4.40;99.90;;;;;;5029039;28;20116;-75
2022/04/28 02:25:21;;;;;;;3.90;1.70;;;4.30;99.90;;;;;;5029666;28;20037;-76
2022/04/28 02:27:47;;;;;;;3.97;1.30;;;4.30;99.90;;;;;;5030716;28;20843;-75
2022/04/28 02:30:13;;;;;;;4.28;1.77;;;4.30;99.90;;;;;;5029958;28;20037;-75
2022/04/28 02:35:26;;;;;;;4.63;1.75;;;4.30;99.90;;;;;;5045217;28;20025;-75
2022/04/28 02:37:52;;;;;;;3.08;1.30;;;4.30;99.90;;;;;;5035805;28;20394;-75
2022/04/28 02:40:19;;;;;;;5.43;2.28;;;4.20;99.90;;;;;;5029148;28;20037;-76
2022/04/28 02:42:45;;;;;;;3.88;2.17;;;4.30;99.90;;;;;;5029325;28;20480;-75
2022/04/28 02:45:10;;;;;;;2.97;1.50;;;4.30;99.90;;;;;;5027722;28;20078;-75
2022/04/28 02:47:38;;;;;;;4.57;1.73;;;4.20;99.90;;;;;;5045778;28;20516;-75
2022/04/28 02:50:11;;;;;;;5.18;1.52;;;4.20;99.90;;;;;;5012681;28;20127;-75
2022/04/28 02:52:39;;;;;;;6.10;1.63;;;4.20;99.90;;;;;;5019442;28;20398;-75
2022/04/28 02:55:08;;;;;;;3.97;1.75;;;4.10;99.90;;;;;;5012400;28;20689;-75
2022/04/28 02:57:34;;;;;;;5.15;3.15;;;4.20;99.90;;;;;;5028773;28;20036;-75
2022/04/28 03:00:04;;;;;;;4.88;2.28;;;4.10;99.90;;;;;;5028062;28;20025;-76
2022/04/28 03:02:31;;;;;;;6.95;2.92;;;4.10;99.90;;;;;;5028763;28;20525;-75
2022/04/28 03:04:57;;;;;;;4.78;2.67;;;4.20;99.90;;;;;;5018089;28;20052;-75
2022/04/28 03:12:52;;;;;;;5.15;2.95;;;4.10;99.90;;;;;;5028590;28;20208;-75
2022/04/28 03:15:27;;;;;;;5.53;2.40;;;4.10;99.90;;;;;;5026678;28;20133;-76
2022/04/28 03:17:53;;;;;;;3.95;2.22;;;4.10;99.90;;;;;;5035124;28;20033;-75
2022/04/28 03:20:19;;;;;;;5.35;2.10;;;4.00;99.90;;;;;;5018643;28;20025;-75
2022/04/28 03:22:45;;;;;;;3.08;1.67;;;4.00;99.90;;;;;;5030881;28;20429;-75
2022/04/28 03:25:11;;;;;;;2.97;1.52;;;4.00;99.90;;;;;;5044025;28;20033;-75
2022/04/28 03:27:37;;;;;;;3.83;1.30;;;4.00;99.90;;;;;;5016338;28;20508;-76
2022/04/28 03:30:04;;;;;;;2.85;0.75;;;4.00;99.90;;;;;;5031729;28;20039;-76
2022/04/28 03:32:42;;;;;;;7.38;2.33;;;4.00;99.90;;;;;;5035787;28;20033;-76
2022/04/28 03:35:10;;;;;;;8.52;3.50;;;4.00;99.90;;;;;;5049121;28;20032;-75
2022/04/28 03:37:36;;;;;;;6.63;4.60;;;4.10;99.90;;;;;;5034046;28;20412;-76
2022/04/28 03:40:03;;;;;;;6.75;2.78;;;4.00;99.90;;;;;;5048072;28;20029;-76
2022/04/28 03:42:30;;;;;;;7.85;2.83;;;3.90;99.90;;;;;;5032169;28;20029;-76
2022/04/28 03:44:57;;;;;;;4.88;2.40;;;4.00;99.90;;;;;;5031570;28;20053;-76
2022/04/28 03:47:22;;;;;;;6.45;2.55;;;4.00;99.90;;;;;;5049248;28;20179;-76
2022/04/28 03:49:48;;;;;;;6.07;3.13;;;4.00;99.90;;;;;;5021407;28;20078;-76
2022/04/28 03:52:14;;;;;;;6.15;2.58;;;3.90;99.90;;;;;;5032352;28;20528;-76
2022/04/28 03:54:40;;;;;;;4.57;2.45;;;3.90;99.90;;;;;;5030340;28;20037;-76
2022/04/28 03:57:06;;;;;;;5.45;2.63;;;3.90;99.90;;;;;;5048464;28;20028;-75
2022/04/28 03:59:33;;;;;;;6.25;2.15;;;3.80;99.90;;;;;;5049128;28;20037;-76
2022/04/28 04:02:04;;;;;;;5.78;2.50;;;3.80;99.90;;;;;;5033213;28;20033;-76
2022/04/28 04:04:30;;;;;;;6.72;3.00;;;3.90;99.90;;;;;;5032023;28;20025;-76
2022/04/28 04:07:00;;;;;;;5.88;2.15;;;3.90;99.90;;;;;;5031446;28;20043;-76
2022/04/28 04:09:48;;;;;;;3.97;2.08;;;3.80;99.90;;;;;;5033623;28;20517;-76
2022/04/28 04:12:20;;;;;;;4.32;2.35;;;3.80;99.90;;;;;;5031500;28;20084;-76
2022/04/28 04:15:11;;;;;;;4.95;2.70;;;3.90;99.90;;;;;;5016808;28;20297;-76
2022/04/28 04:18:04;;;;;;;4.10;2.00;;;3.90;99.90;;;;;;5029650;28;20116;-76
2022/04/28 04:20:37;;;;;;;6.20;2.45;;;3.80;99.90;;;;;;5031106;28;20037;-76
2022/04/28 04:23:05;;;;;;;6.05;2.53;;;3.80;99.90;;;;;;5032688;28;20550;-76
2022/04/28 04:25:31;;;;;;;9.35;2.55;;;3.70;99.90;;;;;;5031639;28;20087;-75
2022/04/28 04:27:57;;;;;;;6.47;2.38;;;3.70;99.90;;;;;;5032308;28;20378;-76
2022/04/28 04:33:33;;;;;;;5.38;1.60;;;3.80;99.90;;;;;;5031306;28;20110;-75
2022/04/28 04:35:59;;;;;;;4.78;1.77;;;3.80;99.90;;;;;;5019623;28;20119;-76
2022/04/28 04:38:25;;;;;;;8.35;3.85;;;3.80;99.90;;;;;;5030923;28;20489;-76
2022/04/28 04:40:50;;;;;;;7.57;3.67;;;3.90;99.90;;;;;;5030619;28;20037;-76
2022/04/28 04:43:16;;;;;;;4.95;3.65;;;3.90;99.90;;;;;;5048473;28;20031;-76
2022/04/28 04:45:43;;;;;;;5.40;2.33;;;3.90;99.90;;;;;;5018711;28;20124;-76
2022/04/28 04:48:31;;;;;;;6.90;2.63;;;3.90;99.90;;;;;;5030029;28;20041;-76
2022/04/28 04:51:00;;;;;;;5.82;2.78;;;3.90;99.90;;;;;;5048168;28;20024;-76
2022/04/28 04:53:31;;;;;;;6.10;2.90;;;3.90;99.90;;;;;;5030539;28;20033;-77
2022/04/28 04:55:58;;;;;;;4.70;1.42;;;4.00;99.90;;;;;;5031027;28;20068;-76
2022/04/28 04:58:26;;;;;;;6.10;1.88;;;4.00;99.90;;;;;;5041010;28;20115;-76
2022/04/28 05:00:52;;;;;;;4.30;2.22;;;4.10;99.90;;;;;;5012859;28;20163;-76
2022/04/28 05:03:38;;;;;;;10.27;5.00;;;4.20;99.90;;;;;;5032635;28;20044;-76
2022/04/28 05:06:21;;;;;;;7.63;4.25;;;4.20;99.90;;;;;;5045191;28;20148;-76
2022/04/28 05:08:51;;;;;;;8.48;4.30;;;4.20;99.90;;;;;;5029997;28;20043;-76
2022/04/28 05:11:17;;;;;;;10.68;4.90;;;4.30;99.90;;;;;;5030986;28;20382;-76
2022/04/28 05:13:58;;;;;;;6.32;3.95;;;4.30;99.90;;;;;;5031153;28;20090;-76
2022/04/28 05:16:24;;;;;;;9.85;3.90;;;4.40;99.90;;;;;;5029476;28;20033;-76
2022/04/28 05:19:02;;;;;;;8.43;3.20;;;4.50;99.90;;;;;;5037952;28;20024;-76
2022/04/28 05:21:52;;;;;;;7.72;3.83;;;4.50;99.90;;;;;;5029340;28;20044;-76
2022/04/28 05:24:36;;;;;;;9.07;5.05;;;4.50;99.90;;;;;;5032313;28;20060;-76
2022/04/28 05:27:29;;;;;;;6.50;3.22;;;4.60;99.90;;;;;;5031749;28;20045;-76
2022/04/28 05:30:13;;;;;;;7.57;4.50;;;4.70;99.90;;;;;;5031872;28;20044;-76
2022/04/28 05:32:59;;;;;;;6.40;3.20;;;4.80;99.90;;;;;;4993047;28;20128;-77
2022/04/28 05:35:44;;;;;;;4.80;2.55;;;4.80;99.90;;;;;;5030660;28;20043;-76
2022/04/28 05:38:10;;;;;;;6.45;3.40;;;4.80;99.90;;;;;;5031119;28;20036;-76
2022/04/28 05:40:39;;;;;;;6.28;3.03;;;4.90;99.90;;;;;;5029377;28;20079;-76
2022/04/28 05:45:51;;;;;;;4.63;2.03;;;5.00;99.90;;;;;;5046176;28;20114;-76
2022/04/28 05:48:18;;;;;;;9.43;2.75;;;5.10;99.90;;;;;;5029463;28;20040;-76
2022/04/28 05:50:49;;;;;;;4.60;3.05;;;5.20;99.90;;;;;;5029687;28;20132;-76
2022/04/28 05:53:17;;;;;;;8.63;3.30;;;5.30;99.90;;;;;;5032615;28;20037;-76
2022/04/28 05:55:46;;;;;;;8.05;2.83;;;5.40;99.90;;;;;;5029142;28;20052;-76
2022/04/28 05:58:12;;;;;;;6.00;2.53;;;5.50;99.90;;;;;;5031423;28;20635;-76
2022/04/28 06:00:44;;;;;;;10.23;2.95;;;5.50;99.90;;;;;;5029686;28;20481;-76
2022/04/28 06:03:10;;;;;;;3.30;1.83;;;5.50;99.90;;;;;;5028751;28;20143;-76
2022/04/28 06:05:44;;;;;;;5.95;2.47;;;5.70;99.90;;;;;;5028239;28;20539;-76
2022/04/28 06:08:11;;;;;;;7.25;2.42;;;5.80;99.90;;;;;;5045483;28;20045;-76
2022/04/28 06:10:37;;;;;;;6.32;2.60;;;6.00;99.90;;;;;;5028698;28;20502;-77
2022/04/28 06:13:03;;;;;;;6.28;2.40;;;6.10;99.90;;;;;;5027899;28;20029;-76
2022/04/28 06:15:35;;;;;;;5.82;2.55;;;6.30;99.90;;;;;;5027447;28;20163;-76
2022/04/28 06:18:19;;;;;;;6.18;2.53;;;6.50;99.90;;;;;;5029632;28;20141;-76
2022/04/28 06:20:45;;;;;;;4.65;2.40;;;6.70;99.90;;;;;;5028306;28;20079;-76
2022/04/28 06:23:22;;;;;;;4.22;2.10;;;6.80;99.90;;;;;;5025651;28;20060;-76
2022/04/28 06:25:49;;;;;;;5.47;1.75;;;7.00;99.90;;;;;;5032932;28;20033;-76
2022/04/28 06:28:15;;;;;;;4.45;1.38;;;7.20;99.90;;;;;;5034912;28;20037;-76
2022/04/28 06:30:46;;;;;;;2.90;0.70;;;7.50;99.90;;;;;;5028983;28;20027;-76
2022/04/28 06:33:39;;;;;;;4.60;1.48;;;7.70;99.90;;;;;;5022143;28;20131;-77
2022/04/28 06:36:10;;;;;;;3.25;0.95;;;8.00;99.90;;;;;;5045475;28;20098;-76
2022/04/28 06:38:38;;;;;;;4.55;1.52;;;8.30;99.90;;;;;;5027559;28;20106;-76
2022/04/28 06:41:07;;;;;;;2.95;0.82;;;8.40;99.90;;;;;;5028106;28;20552;-76
2022/04/28 06:43:37;;;;;;;4.07;0.80;;;8.60;99.90;;;;;;5028762;28;20104;-76
2022/04/28 06:46:23;;;;;;;5.32;1.60;;;8.80;99.90;;;;;;5029301;28;20037;-76
2022/04/28 06:49:09;;;;;;;5.40;2.13;;;8.90;99.90;;;;;;5007584;28;20033;-76
2022/04/28 06:52:06;;;;;;;5.93;1.70;;;9.10;99.90;;;;;;5029284;28;20116;-77
2022/04/28 06:54:55;;;;;;;4.85;1.50;;;9.50;99.90;;;;;;5029439;28;20567;-76
2022/04/28 06:57:25;;;;;;;5.45;1.05;;;9.50;99.90;;;;;;5044230;28;20059;-76
2022/04/28 06:59:51;;;;;;;2.92;1.17;;;9.60;99.90;;;;;;5032567;28;20115;-76
2022/04/28 07:02:20;;;;;;;3.72;1.10;;;9.60;99.90;;;;;;5031997;28;20051;-76
2022/04/28 07:04:47;;;;;;;2.97;1.20;;;9.80;99.90;;;;;;5040014;28;20052;-76
2022/04/28 07:07:17;;;;;;;2.20;0.80;;;9.90;99.90;;;;;;5033303;28;20124;-76
2022/04/28 07:09:45;;;;;;;5.95;1.63;;;10.00;99.90;;;;;;5038738;28;20414;-76
2022/04/28 07:12:12;;;;;;;4.97;1.80;;;10.00;99.90;;;;;;5038798;28;20102;-77
2022/04/28 07:14:57;;;;;;;4.95;1.55;;;10.00;99.90;;;;;;5034522;28;20071;-77
2022/04/28 07:17:38;;;;;;;6.13;1.27;;;10.20;99.90;;;;;;5019367;28;20064;-76
2022/04/28 07:20:04;;;;;;;4.93;1.10;;;10.40;99.90;;;;;;5031064;28;20481;-76
2022/04/28 07:22:30;;;;;;;4.70;1.45;;;10.60;99.90;;;;;;5033109;28;20126;-77
2022/04/28 07:24:56;;;;;;;5.70;0.88;;;10.60;99.90;;;;;;5027758;28;20041;-77
2022/04/28 07:27:21;;;;;;;3.20;0.95;;;10.70;99.90;;;;;;5032096;28;20081;-77
2022/04/28 07:29:53;;;;;;;7.00;1.98;;;10.70;99.90;;;;;;5033107;28;20503;-76
2022/04/28 07:32:49;;;;;;;2.33;0.70;;;11.00;99.90;;;;;;5022315;28;20038;-76
2022/04/28 07:35:15;;;;;;;2.10;0.98;;;11.20;99.90;;;;;;5032778;28;20079;-76
2022/04/28 07:38:08;;;;;;;3.17;0.77;;;11.20;99.90;;;;;;5027540;28;20291;-77
2022/04/28 07:40:34;;;;;;;3.80;1.13;;;11.70;99.90;;;;;;5038483;28;20037;-77
2022/04/28 07:43:04;;;;;;;3.20;0.80;;;11.80;99.90;;;;;;5032080;28;20037;-77
2022/04/28 07:45:30;;;;;;;1.90;0.60;;;12.10;99.90;;;;;;5032636;28;20083;-76
2022/04/28 07:47:57;;;;;;;3.20;0.75;;;12.00;99.90;;;;;;5031679;28;22047;-76
2022/04/28 07:50:24;;;;;;;3.45;0.70;;;11.80;99.90;;;;;;5028781;28;20461;-76
2022/04/28 07:52:54;;;;;;;2.83;0.60;;;12.00;99.90;;;;;;5032138;28;20041;-76
2022/04/28 07:55:21;;;;;;;6.85;1.20;;;11.90;99.90;;;;;;5048608;28;20049;-76
2022/04/28 07:57:49;;;;;;;6.25;1.83;;;11.70;99.90;;;;;;5049138;28;20040;-76
2022/04/28 08:00:23;;;;;;;4.93;0.93;;;11.50;99.90;;;;;;5038334;28;20071;-77
2022/04/28 08:02:53;;;;;;;3.95;0.70;;;11.80;99.90;;;;;;5028854;28;20040;-77
2022/04/28 08:05:24;;;;;;;3.28;0.55;;;12.10;99.90;;;;;;5033564;28;20576;-76
2022/04/28 08:07:49;;;;;;;2.85;0.50;;;12.30;99.90;;;;;;5030979;28;20045;-76
2022/04/28 08:10:15;;;;;;;3.15;1.00;;;12.20;99.90;;;;;;5038016;28;20025;-76
2022/04/28 08:12:41;;;;;;;3.58;0.63;;;12.40;99.90;;;;;;5031673;28;20024;-76
2022/04/28 08:15:25;;;;;;;3.85;1.20;;;12.50;99.90;;;;;;5033207;28;20040;-77
2022/04/28 08:17:51;;;;;;;3.20;0.70;;;12.60;99.90;;;;;;5031564;28;20539;-76
2022/04/28 08:20:17;;;;;;;2.25;0.80;;;12.90;99.90;;;;;;5046953;28;20040;-76
2022/04/28 08:22:43;;;;;;;2.78;0.90;;;13.00;99.90;;;;;;5030805;28;20029;-77
2022/04/28 08:25:09;;;;;;;2.90;0.70;;;13.10;99.90;;;;;;5048722;28;20025;-77
2022/04/28 08:27:35;;;;;;;3.30;0.90;;;12.90;99.90;;;;;;5030530;28;20044;-77
2022/04/28 08:30:02;;;;;;;4.72;0.60;;;13.30;99.90;;;;;;5030290;28;20121;-77
2022/04/28 08:32:28;;;;;;;2.08;0.60;;;13.20;99.90;;;;;;5031648;28;20454;-77
2022/04/28 08:34:53;;;;;;;1.38;0.60;;;13.30;99.90;;;;;;5031537;28;20490;-77
2022/04/28 08:37:19;;;;;;;3.80;0.70;;;13.40;99.90;;;;;;5047719;28;20474;-77
2022/04/28 08:39:45;;;;;;;3.95;0.70;;;13.40;99.90;;;;;;5014979;28;20034;-77
2022/04/28 08:42:13;;;;;;;5.20;0.85;;;13.30;99.90;;;;;;5047525;28;20025;-76
2022/04/28 08:44:52;;;;;;;5.30;0.80;;;13.20;99.90;;;;;;5047139;28;20038;-77
2022/04/28 08:47:37;;;;;;;3.05;1.00;;;13.50;99.90;;;;;;5031737;28;20149;-78
2022/04/28 08:50:22;;;;;;;5.18;1.55;;;13.20;99.90;;;;;;5031823;28;20037;-76
2022/04/28 08:53:04;;;;;;;3.58;0.88;;;12.50;99.90;;;;;;5012587;28;20053;-77
2022/04/28 08:55:33;;;;;;;4.85;1.23;;;13.10;99.90;;;;;;5015165;28;20460;-77
2022/04/28 08:57:59;;;;;;;3.60;1.25;;;13.40;99.90;;;;;;5047686;28;20032;-77
2022/04/28 09:00:25;;;;;;;5.22;1.48;;;13.10;99.90;;;;;;5043385;28;20053;-77
2022/04/28 09:03:14;;;;;;;8.02;2.63;;;12.40;99.90;;;;;;4996995;28;20165;-77
2022/04/28 09:06:19;;;;;;;6.75;2.55;;;12.00;99.90;;;;;;4997546;28;20041;-77
2022/04/28 09:09:06;;;;;;;3.40;1.15;;;12.20;99.90;;;;;;4997387;28;20049;-77
2022/04/28 09:11:50;;;;;;;8.45;1.63;;;12.70;99.90;;;;;;4997276;28;20592;-77
2022/04/28 09:14:42;;;;;;;6.80;1.00;;;12.70;99.90;;;;;;4997010;28;20116;-77
2022/04/28 09:17:08;;;;;;;6.10;1.75;;;13.00;99.90;;;;;;4975193;28;20104;-77
2022/04/28 09:19:38;;;;;;;8.23;2.38;;;12.30;99.90;;;;;;4974937;28;22348;-77
2022/04/28 09:22:13;;;;;;;7.43;1.50;;;12.10;99.90;;;;;;4958554;28;20045;-77
2022/04/28 09:24:43;;;;;;;3.90;0.98;;;12.30;99.90;;;;;;4979788;28;20029;-77
2022/04/28 09:27:10;;;;;;;5.32;1.80;;;13.10;99.90;;;;;;4980672;28;20123;-77
2022/04/28 09:29:39;;;;;;;8.60;1.85;;;12.90;99.90;;;;;;4991009;28;20037;-78
2022/04/28 09:32:10;;;;;;;3.40;0.60;;;13.20;99.90;;;;;;4959122;28;20157;-77
2022/04/28 09:34:55;;;;;;;5.15;1.88;;;13.80;99.90;;;;;;4996203;28;20057;-77
2022/04/28 09:37:40;;;;;;;6.78;1.80;;;13.40;99.90;;;;;;4997091;28;20124;-77
2022/04/28 09:42:54;;;;;;;6.32;1.40;;;13.70;99.90;;;;;;5037510;28;20065;-77
2022/04/28 09:45:28;;;;;;;4.75;1.33;;;13.70;99.90;;;;;;5047028;28;20027;-77
2022/04/28 09:48:03;;;;;;;10.52;2.55;;;14.00;99.90;;;;;;5014179;28;20536;-77
2022/04/28 09:50:38;;;;;;;5.82;1.70;;;12.90;99.90;;;;;;5046405;28;20025;-77
2022/04/28 09:53:22;;;;;;;8.18;2.08;;;12.90;99.90;;;;;;5032503;28;20052;-77
2022/04/28 09:56:05;;;;;;;4.50;0.98;;;12.90;99.90;;;;;;5028305;28;20049;-77
2022/04/28 09:58:51;;;;;;;5.50;1.27;;;13.70;99.90;;;;;;5032350;28;20538;-77
2022/04/28 10:01:17;;;;;;;4.28;0.85;;;13.90;99.90;;;;;;5029413;28;20128;-77
2022/04/28 10:03:43;;;;;;;3.53;1.02;;;14.00;99.90;;;;;;5028677;28;20124;-78
2022/04/28 10:06:13;;;;;;;5.53;1.02;;;14.50;99.90;;;;;;5026670;28;20341;-77
2022/04/28 10:08:56;;;;;;;2.03;0.70;;;14.70;99.90;;;;;;5030196;28;20123;-78
2022/04/28 10:11:24;;;;;;;2.58;0.90;;;14.90;99.90;;;;;;5045323;28;20075;-77
2022/04/28 10:13:52;;;;;;;4.13;0.77;;;14.90;99.90;;;;;;5035766;28;20565;-77
2022/04/28 10:16:24;;;;;;;2.60;0.60;;;15.30;99.90;;;;;;5018189;28;20033;-77
2022/04/28 10:19:10;;;;;;;1.35;0.50;;;14.90;99.90;;;;;;5030295;28;20056;-78
2022/04/28 10:22:01;;;;;;;9.52;1.90;;;15.00;99.90;;;;;;5029635;28;20021;-78
2022/04/28 10:33:15;;;;;;;3.47;1.80;;;13.60;99.90;;;;;;5032136;28;20403;-78
2022/04/28 10:35:45;;;;;;;5.57;1.67;;;14.20;99.90;;;;;;5030459;28;20376;-78
2022/04/28 10:38:20;;;;;;;;;;;14.40;99.90;;;;;;5031050;28;20064;-77
2022/04/28 10:40:58;;;;;;;7.45;2.60;;;14.10;99.90;;;;;;5030540;28;19909;-78
2022/04/28 10:43:37;;;;;;;7.55;2.65;;;14.10;99.90;;;;;;5030350;28;20041;-78
2022/04/28 10:46:06;;;;;;;8.02;3.00;;;13.90;99.90;;;;;;5012734;28;20372;-79
2022/04/28 10:48:33;;;;;;;5.35;1.60;;;13.60;99.90;;;;;;5029027;28;20041;-77
2022/04/28 10:51:05;;;;;;;3.65;1.08;;;14.70;99.90;;;;;;5027763;28;20033;-78
2022/04/28 10:53:31;;;;;;;2.17;0.60;;;15.40;99.90;;;;;;5031955;28;20037;-78
2022/04/28 10:56:06;;;;;;;4.10;1.75;;;15.50;99.90;;;;;;5029204;28;20083;-78
2022/04/28 10:58:32;;;;;;;2.90;0.60;;;15.20;99.90;;;;;;5043233;28;20026;-78
2022/04/28 11:01:00;;;;;;;8.68;1.60;;;15.80;99.90;;;;;;5044990;28;20051;-78
2022/04/28 11:03:58;;;;;;;5.15;1.45;;;14.80;99.90;;;;;;5030872;28;20086;-78
2022/04/28 11:06:29;;;;;;;4.18;0.93;;;15.30;99.90;;;;;;5044539;28;20477;-79
2022/04/28 11:08:57;;;;;;;3.10;0.77;;;15.90;99.90;;;;;;5029401;28;20668;-78
2022/04/28 11:11:42;;;;;;;2.78;0.80;;;16.10;99.90;;;;;;5030249;28;20075;-77
2022/04/28 11:14:08;;;;;;;6.05;1.70;;;15.90;99.90;;;;;;5029782;28;20033;-79
2022/04/28 11:16:35;;;;;;;3.95;1.00;;;15.80;99.90;;;;;;5030562;28;20115;-78
2022/04/28 11:19:02;;;;;;;7.05;3.03;;;16.20;99.90;;;;;;5028828;28;20657;-78
2022/04/28 11:21:28;;;;;;;5.50;2.53;;;15.10;99.90;;;;;;5030171;28;20484;-78
2022/04/28 11:23:55;;;;;;;6.20;2.00;;;14.70;99.90;;;;;;5029744;28;20033;-79
2022/04/28 11:26:44;;;;;;;6.70;2.50;;;15.20;99.90;;;;;;5026301;28;20515;-79
2022/04/28 11:29:22;;;;;;;5.80;2.00;;;14.80;99.90;;;;;;5043843;28;20066;-78
2022/04/28 11:31:49;;;;;;;5.45;1.60;;;15.10;99.90;;;;;;5030927;28;20134;-77
2022/04/28 11:34:15;;;;;;;4.85;1.58;;;15.60;99.90;;;;;;5029864;28;20021;-77
2022/04/28 11:36:41;;;;;;;4.22;1.90;;;15.50;99.90;;;;;;5029211;28;20404;-78
2022/04/28 11:39:08;;;;;;;3.85;0.90;;;16.00;99.90;;;;;;5041718;28;20386;-78
2022/04/28 11:41:35;;;;;;;3.45;1.25;;;16.00;99.90;;;;;;5028993;28;20039;-78
2022/04/28 11:44:09;;;;;;;2.00;0.75;;;15.70;99.90;;;;;;5029633;28;20025;-79
2022/04/28 11:46:51;;;;;;;2.58;0.93;;;16.30;99.90;;;;;;5033335;28;20413;-78
2022/04/28 11:49:18;;;;;;;4.35;2.35;;;16.30;99.90;;;;;;5038577;28;20117;-78
2022/04/28 11:51:44;;;;;;;2.88;1.13;;;15.40;99.90;;;;;;5033843;28;20033;-78
2022/04/28 11:54:24;;;;;;;2.47;0.60;;;15.80;99.90;;;;;;5032396;28;20032;-79
2022/04/28 11:56:50;;;;;;;2.90;0.60;;;16.60;99.90;;;;;;5038849;28;20056;-77
2022/04/28 11:59:17;;;;;;;1.77;0.60;;;17.20;99.90;;;;;;5034331;28;20489;-78
2022/04/28 12:01:44;;;;;;;3.58;0.50;;;17.40;99.90;;;;;;5049171;28;20116;-78
2022/04/28 12:04:10;;;;;;;1.80;0.52;;;17.00;99.90;;;;;;5032720;28;20372;-78
2022/04/28 12:06:37;;;;;;;4.75;1.20;;;16.70;99.90;;;;;;5033181;28;20028;-78
2022/04/28 12:14:34;;;;;;;6.55;1.60;;;16.40;99.90;;;;;;5048232;28;20033;-78
2022/04/28 12:19:53;;;;;;;2.40;0.60;;;15.90;99.90;;;;;;5033923;28;20123;-78
2022/04/28 12:22:39;;;;;;;5.90;1.70;;;16.60;99.90;;;;;;5032178;28;20031;-78
2022/04/28 12:25:15;;;;;;;2.80;1.15;;;15.70;99.90;;;;;;5032443;28;20026;-78
2022/04/28 12:27:51;;;;;;;4.97;1.17;;;15.90;99.90;;;;;;5032834;28;20155;-78
2022/04/28 12:30:18;;;;;;;5.38;1.33;;;16.50;99.90;;;;;;5033293;28;20441;-79
2022/04/28 12:32:46;;;;;;;1.95;0.70;;;16.40;99.90;;;;;;5029338;28;20033;-78
2022/04/28 12:35:25;;;;;;;2.47;0.80;;;16.90;99.90;;;;;;5033232;28;20084;-78
2022/04/28 12:37:55;;;;;;;3.20;1.00;;;17.00;99.90;;;;;;5032336;28;20025;-78
2022/04/28 12:40:21;;;;;;;7.57;1.88;;;16.20;99.90;;;;;;5032668;28;20026;-78
2022/04/28 12:42:48;;;;;;;3.88;1.30;;;15.60;99.90;;;;;;5037164;28;20512;-79
2022/04/28 12:45:16;;;;;;;3.67;0.70;;;15.80;99.90;;;;;;5033321;28;20504;-78
2022/04/28 12:47:43;;;;;;;3.50;0.80;;;16.50;99.90;;;;;;5032410;28;20124;-78
2022/04/28 12:50:22;;;;;;;1.42;0.43;;;16.90;99.90;;;;;;5031886;28;20029;-78
2022/04/28 12:52:48;;;;;;;3.33;1.13;;;17.20;99.90;;;;;;5032061;28;20039;-78
2022/04/28 12:55:15;;;;;;;3.28;1.30;;;16.40;99.90;;;;;;5033016;28;20036;-78
2022/04/28 12:57:41;;;;;;;3.75;0.60;;;16.00;99.90;;;;;;5037288;28;20040;-78
2022/04/28 13:00:09;;;;;;;1.30;0.50;;;16.80;99.90;;;;;;5032287;28;20021;-77
2022/04/28 13:02:35;;;;;;;3.75;0.95;;;17.30;99.90;;;;;;5031418;28;20045;-79
2022/04/28 13:05:15;;;;;;;2.88;0.80;;;16.70;99.90;;;;;;5031020;28;20041;-78
2022/04/28 13:07:41;;;;;;;;;;;16.80;99.90;;;;;;5032337;28;20041;-78
2022/04/28 13:10:09;;;;;;;1.30;0.40;;;17.30;99.90;;;;;;5031691;28;20732;-79
2022/04/28 13:12:35;;;;;;;4.40;0.50;;;17.90;99.90;;;;;;5032175;28;20059;-79
2022/04/28 13:15:02;;;;;;;1.90;0.55;;;17.60;99.90;;;;;;5032037;28;20266;-79
2022/04/28 13:17:30;;;;;;;2.30;0.68;;;17.50;99.90;;;;;;5032508;28;20035;-78
2022/04/28 13:19:56;;;;;;;4.72;2.08;;;17.30;99.90;;;;;;5031104;28;20017;-79
2022/04/28 13:22:22;;;;;;;7.18;2.38;;;16.70;99.90;;;;;;5032138;28;20351;-78
2022/04/28 13:24:48;;;;;;;6.28;2.92;;;16.20;99.90;;;;;;5032348;28;20501;-77
2022/04/28 13:27:14;;;;;;;3.03;1.13;;;15.70;99.90;;;;;;5032240;28;20029;-78
2022/04/28 13:29:39;;;;;;;4.47;1.48;;;16.40;99.90;;;;;;5035557;28;20048;-78
2022/04/28 13:32:07;;;;;;;4.07;0.70;;;16.70;99.90;;;;;;5031546;28;20024;-78
2022/04/28 13:34:33;;;;;;;2.00;0.70;;;16.90;99.90;;;;;;5031573;28;20412;-78
2022/04/28 13:36:58;;;;;;;2.15;0.50;;;17.50;99.90;;;;;;5031087;28;20034;-79
2022/04/28 13:39:24;;;;;;;1.75;0.57;;;17.60;99.90;;;;;;5031957;28;20044;-79
2022/04/28 13:41:50;;;;;;;3.33;0.93;;;17.40;99.90;;;;;;5047295;28;20203;-78
2022/04/28 13:44:16;;;;;;;5.15;1.73;;;17.40;99.90;;;;;;5031472;28;20025;-80
2022/04/28 13:46:41;;;;;;;2.40;1.02;;;17.00;99.90;;;;;;5031294;28;20163;-79
2022/04/28 13:49:07;;;;;;;4.15;0.98;;;17.30;99.90;;;;;;5031002;28;20030;-79
2022/04/28 13:51:33;;;;;;;2.65;0.80;;;17.30;99.90;;;;;;5030444;28;20056;-79